Time;durP1;ratioP1;P1;durP2;ratioP2;P2;SDS_P1;SDS_P2;PMS_P1;PMS_P2;Temp;Humidity;BMP_temperature;BMP_pressure;BME280_temperature;BME280_humidity;BME280_pressure;Samples;Min_cycle;Max_cycle;Signal;HPM_P1;HPM_P2
2021/06/26 00:00:25;;;;;;;4.10;2.30;;;;;;;;;;4920416;29;20393;-78
2021/06/26 00:02:51;;;;;;;4.47;2.42;;;;;;;;;;4920703;29;20027;-80
2021/06/26 00:05:18;;;;;;;6.13;3.13;;;;;;;;;;4937955;29;20588;-79
2021/06/26 00:07:44;;;;;;;6.90;3.17;;;;;;;;;;4937429;29;20366;-80
2021/06/26 00:10:10;;;;;;;6.60;3.60;;;;;;;;;;4937439;29;20031;-79
2021/06/26 00:12:37;;;;;;;5.10;3.05;;;;;;;;;;4920340;29;20105;-81
2021/06/26 00:15:05;;;;;;;5.40;2.90;;;;;;;;;;4937423;29;20031;-80
2021/06/26 00:17:31;;;;;;;4.13;2.78;;;;;;;;;;4920115;29;20051;-79
2021/06/26 00:19:58;;;;;;;9.35;4.10;;;;;;;;;;4937139;29;20544;-79
2021/06/26 00:22:24;;;;;;;7.78;4.22;;;;;;;;;;4937362;29;20082;-79
2021/06/26 00:24:51;;;;;;;10.45;6.20;;;;;;;;;;4937606;29;20110;-80
2021/06/26 00:27:17;;;;;;;10.00;5.93;;;;;;;;;;4937168;29;20031;-80
2021/06/26 00:29:43;;;;;;;9.05;5.68;;;;;;;;;;4937152;29;20032;-79
2021/06/26 00:32:09;;;;;;;9.50;5.85;;;;;;;;;;4920212;29;20122;-79
2021/06/26 00:34:35;;;;;;;9.60;5.50;;;;;;;;;;4920040;29;20504;-80
2021/06/26 00:37:02;;;;;;;10.18;6.07;;;;;;;;;;4919756;29;20382;-79
2021/06/26 00:39:28;;;;;;;7.40;4.80;;;;;;;;;;4936911;29;20059;-80
2021/06/26 00:41:54;;;;;;;8.80;5.38;;;;;;;;;;4937009;29;20024;-79
2021/06/26 00:44:20;;;;;;;8.50;4.93;;;;;;;;;;4919837;29;20174;-80
2021/06/26 00:46:47;;;;;;;8.40;5.28;;;;;;;;;;4919876;29;20031;-80
2021/06/26 00:49:13;;;;;;;9.50;5.55;;;;;;;;;;4937000;29;20023;-79
2021/06/26 00:51:41;;;;;;;10.07;5.10;;;;;;;;;;4920187;29;20087;-86
2021/06/26 00:54:07;;;;;;;7.57;5.00;;;;;;;;;;4937135;29;20059;-80
2021/06/26 00:56:33;;;;;;;9.25;5.60;;;;;;;;;;4919864;29;20392;-80
2021/06/26 00:58:59;;;;;;;8.45;5.45;;;;;;;;;;4919816;29;20031;-81
2021/06/26 01:01:26;;;;;;;9.32;5.40;;;;;;;;;;4936575;29;20020;-84
2021/06/26 01:03:53;;;;;;;10.27;5.47;;;;;;;;;;4937338;29;20040;-81
2021/06/26 01:06:19;;;;;;;10.38;5.63;;;;;;;;;;4936759;29;20034;-80
2021/06/26 01:08:46;;;;;;;9.38;5.28;;;;;;;;;;4937451;29;20031;-79
2021/06/26 01:11:12;;;;;;;6.72;4.45;;;;;;;;;;4919647;29;20023;-83
2021/06/26 01:13:38;;;;;;;7.25;4.47;;;;;;;;;;4919715;29;20027;-79
2021/06/26 01:16:04;;;;;;;5.93;3.60;;;;;;;;;;4924249;29;20038;-80
2021/06/26 01:18:31;;;;;;;4.55;3.15;;;;;;;;;;4923407;29;20126;-78
2021/06/26 01:20:57;;;;;;;4.97;3.05;;;;;;;;;;4923613;29;20032;-84
2021/06/26 01:23:25;;;;;;;4.68;3.08;;;;;;;;;;4936845;29;20052;-79
2021/06/26 01:25:51;;;;;;;4.85;2.90;;;;;;;;;;4919490;29;20023;-79
2021/06/26 01:28:18;;;;;;;5.57;3.42;;;;;;;;;;4936413;29;20039;-80
2021/06/26 01:30:44;;;;;;;3.95;2.50;;;;;;;;;;4937004;29;20099;-79
2021/06/26 01:33:10;;;;;;;3.85;2.08;;;;;;;;;;4924173;29;20042;-85
2021/06/26 01:35:37;;;;;;;3.63;2.42;;;;;;;;;;4941614;29;20075;-79
2021/06/26 01:38:04;;;;;;;3.72;2.03;;;;;;;;;;4941139;29;20040;-80
2021/06/26 01:40:30;;;;;;;7.95;1.80;;;;;;;;;;4924438;29;20034;-86
2021/06/26 01:42:57;;;;;;;3.53;1.90;;;;;;;;;;4923368;29;20397;-79
2021/06/26 01:45:23;;;;;;;4.95;1.90;;;;;;;;;;4923313;29;20019;-86
2021/06/26 01:47:50;;;;;;;6.97;1.90;;;;;;;;;;4923423;29;20082;-79
2021/06/26 01:50:17;;;;;;;3.47;1.63;;;;;;;;;;4940353;29;20031;-86
2021/06/26 01:52:45;;;;;;;3.55;2.15;;;;;;;;;;4923095;29;20382;-79
2021/06/26 01:55:15;;;;;;;5.63;1.70;;;;;;;;;;4940858;29;20389;-79
2021/06/26 01:57:42;;;;;;;4.70;2.15;;;;;;;;;;4922882;29;20044;-79
2021/06/26 02:00:09;;;;;;;4.40;2.10;;;;;;;;;;4922762;29;20114;-80
2021/06/26 02:02:36;;;;;;;3.50;1.95;;;;;;;;;;4922745;29;20504;-80
2021/06/26 02:05:03;;;;;;;3.35;2.10;;;;;;;;;;4939737;29;20099;-79
2021/06/26 02:07:30;;;;;;;4.18;2.08;;;;;;;;;;4922670;29;20028;-85
2021/06/26 02:09:56;;;;;;;4.65;2.17;;;;;;;;;;4940422;29;20019;-85
2021/06/26 02:12:22;;;;;;;4.43;2.20;;;;;;;;;;4922470;29;20470;-79
2021/06/26 02:14:52;;;;;;;4.15;2.10;;;;;;;;;;4939629;29;20032;-80
2021/06/26 02:17:19;;;;;;;3.60;1.88;;;;;;;;;;4922378;29;20482;-80
2021/06/26 02:19:46;;;;;;;3.42;1.88;;;;;;;;;;4939499;29;20024;-84
2021/06/26 02:22:12;;;;;;;5.90;2.40;;;;;;;;;;4939576;29;20063;-85
2021/06/26 02:24:38;;;;;;;7.95;2.63;;;;;;;;;;4922210;29;20047;-80
2021/06/26 02:27:04;;;;;;;4.43;2.17;;;;;;;;;;4939335;29;20043;-81
2021/06/26 02:29:31;;;;;;;4.07;2.53;;;;;;;;;;4939789;29;20416;-82
2021/06/26 02:31:57;;;;;;;5.55;2.60;;;;;;;;;;4939788;29;20055;-86
2021/06/26 02:34:24;;;;;;;3.47;2.15;;;;;;;;;;4939707;29;20032;-85
2021/06/26 02:36:50;;;;;;;6.43;1.98;;;;;;;;;;4939086;29;20429;-79
2021/06/26 02:39:17;;;;;;;4.05;2.10;;;;;;;;;;4939134;29;20066;-79
2021/06/26 02:41:43;;;;;;;5.07;2.40;;;;;;;;;;4922095;29;20030;-83
2021/06/26 02:44:09;;;;;;;7.47;2.90;;;;;;;;;;4938664;29;20032;-85
2021/06/26 02:46:35;;;;;;;5.28;2.97;;;;;;;;;;4938839;29;20108;-79
2021/06/26 02:49:02;;;;;;;5.63;3.10;;;;;;;;;;4921817;29;20064;-80
2021/06/26 02:51:28;;;;;;;4.78;2.67;;;;;;;;;;4939464;29;20083;-82
2021/06/26 02:53:55;;;;;;;12.27;3.20;;;;;;;;;;4938943;29;20028;-80
2021/06/26 02:56:21;;;;;;;6.70;2.90;;;;;;;;;;4938666;29;20039;-79
2021/06/26 02:58:48;;;;;;;6.57;2.83;;;;;;;;;;4939263;29;20035;-80
2021/06/26 03:01:14;;;;;;;5.20;2.40;;;;;;;;;;4939088;29;20027;-80
2021/06/26 03:03:41;;;;;;;6.95;2.60;;;;;;;;;;4939148;29;20114;-80
2021/06/26 03:06:07;;;;;;;4.07;2.60;;;;;;;;;;4938444;29;20032;-80
2021/06/26 03:08:33;;;;;;;4.20;2.38;;;;;;;;;;4921426;29;20031;-81
2021/06/26 03:11:00;;;;;;;5.03;3.08;;;;;;;;;;4938600;29;20067;-83
2021/06/26 03:13:26;;;;;;;4.40;2.50;;;;;;;;;;4938673;29;20087;-82
2021/06/26 03:15:53;;;;;;;4.72;2.90;;;;;;;;;;4938416;29;20433;-79
2021/06/26 03:18:19;;;;;;;4.40;2.97;;;;;;;;;;4921245;29;20175;-80
2021/06/26 03:20:46;;;;;;;4.43;3.03;;;;;;;;;;4938266;29;20397;-79
2021/06/26 03:23:12;;;;;;;5.43;3.05;;;;;;;;;;4938850;29;20031;-79
2021/06/26 03:25:38;;;;;;;8.05;2.75;;;;;;;;;;4938308;29;20430;-86
2021/06/26 03:28:05;;;;;;;5.70;3.42;;;;;;;;;;4921209;29;20028;-80
2021/06/26 03:30:31;;;;;;;5.28;3.00;;;;;;;;;;4938173;29;20063;-79
2021/06/26 03:32:57;;;;;;;5.70;3.00;;;;;;;;;;4921055;29;20035;-79
2021/06/26 03:35:23;;;;;;;5.65;3.25;;;;;;;;;;4921170;29;20035;-80
2021/06/26 03:37:50;;;;;;;7.22;2.97;;;;;;;;;;4920790;29;20040;-82
2021/06/26 03:40:16;;;;;;;5.47;3.00;;;;;;;;;;4938847;29;20126;-81
2021/06/26 03:42:42;;;;;;;5.53;2.88;;;;;;;;;;4938668;29;20055;-79
2021/06/26 03:45:09;;;;;;;4.30;2.58;;;;;;;;;;4937846;29;20028;-80
2021/06/26 03:47:35;;;;;;;3.50;2.22;;;;;;;;;;4937872;29;20020;-79
2021/06/26 03:50:03;;;;;;;5.72;2.40;;;;;;;;;;4920825;29;20028;-87
2021/06/26 03:52:29;;;;;;;4.75;2.60;;;;;;;;;;4920756;29;20071;-80
2021/06/26 03:54:55;;;;;;;4.28;2.70;;;;;;;;;;4936981;29;20028;-86
2021/06/26 03:57:22;;;;;;;5.03;3.17;;;;;;;;;;4938108;29;20043;-81
2021/06/26 03:59:48;;;;;;;9.10;3.45;;;;;;;;;;4937706;29;20028;-82
2021/06/26 04:02:14;;;;;;;7.43;3.10;;;;;;;;;;4920712;29;20114;-86
2021/06/26 04:04:40;;;;;;;5.72;3.65;;;;;;;;;;4937701;29;20039;-81
2021/06/26 04:07:07;;;;;;;5.15;3.20;;;;;;;;;;4938054;29;20052;-82
2021/06/26 04:09:33;;;;;;;6.03;3.50;;;;;;;;;;4937453;29;20032;-80
2021/06/26 04:11:59;;;;;;;4.60;3.15;;;;;;;;;;4920469;29;20031;-79
2021/06/26 04:14:25;;;;;;;6.47;2.95;;;;;;;;;;4920366;29;20062;-79
2021/06/26 04:16:51;;;;;;;7.68;3.83;;;;;;;;;;4937340;29;20153;-81
2021/06/26 04:19:18;;;;;;;4.97;2.72;;;;;;;;;;4920304;29;20027;-87
2021/06/26 04:21:44;;;;;;;7.15;3.55;;;;;;;;;;4937203;29;20043;-81
2021/06/26 04:24:10;;;;;;;6.55;3.35;;;;;;;;;;4937268;29;20385;-84
2021/06/26 04:26:37;;;;;;;4.88;2.83;;;;;;;;;;4920097;29;20389;-81
2021/06/26 04:29:03;;;;;;;4.20;2.60;;;;;;;;;;4937747;29;20381;-80
2021/06/26 04:31:30;;;;;;;11.38;3.70;;;;;;;;;;4920220;29;20038;-88
2021/06/26 04:33:56;;;;;;;6.32;3.00;;;;;;;;;;4937074;29;20038;-81
2021/06/26 04:36:23;;;;;;;7.43;3.78;;;;;;;;;;4919831;29;20032;-80
2021/06/26 04:38:49;;;;;;;9.68;3.60;;;;;;;;;;4936663;29;20056;-85
2021/06/26 04:41:15;;;;;;;4.65;3.22;;;;;;;;;;4920000;29;20536;-82
2021/06/26 04:43:41;;;;;;;6.38;3.20;;;;;;;;;;4937450;29;20067;-80
2021/06/26 04:46:10;;;;;;;5.22;3.05;;;;;;;;;;4936928;29;20055;-79
2021/06/26 04:48:37;;;;;;;7.45;3.53;;;;;;;;;;4919698;29;20051;-79
2021/06/26 04:51:03;;;;;;;7.43;3.17;;;;;;;;;;4919733;29;20028;-79
2021/06/26 04:53:29;;;;;;;6.65;3.50;;;;;;;;;;4919688;29;20110;-82
2021/06/26 04:55:56;;;;;;;8.00;3.15;;;;;;;;;;4919621;29;20032;-81
2021/06/26 04:58:22;;;;;;;5.00;3.10;;;;;;;;;;4936977;29;20036;-79
2021/06/26 05:00:52;;;;;;;5.97;3.20;;;;;;;;;;4919578;29;20027;-79
2021/06/26 05:03:22;;;;;;;5.68;2.83;;;;;;;;;;4919390;29;20038;-87
2021/06/26 05:05:50;;;;;;;5.38;3.17;;;;;;;;;;4936395;29;20024;-81
2021/06/26 05:08:16;;;;;;;5.65;2.92;;;;;;;;;;4919607;29;20046;-84
2021/06/26 05:10:42;;;;;;;5.00;3.05;;;;;;;;;;4919405;29;20047;-86
2021/06/26 05:13:09;;;;;;;5.35;2.90;;;;;;;;;;4937084;29;20027;-82
2021/06/26 05:15:35;;;;;;;11.95;3.00;;;;;;;;;;4936931;29;20031;-81
2021/06/26 05:18:01;;;;;;;6.68;3.13;;;;;;;;;;4919210;29;20069;-81
2021/06/26 05:20:28;;;;;;;4.75;2.63;;;;;;;;;;4919337;29;20046;-81
2021/06/26 05:22:54;;;;;;;3.70;2.40;;;;;;;;;;4919261;29;20134;-78
2021/06/26 05:25:20;;;;;;;4.47;2.45;;;;;;;;;;4919118;29;20047;-83
2021/06/26 05:27:47;;;;;;;4.88;2.80;;;;;;;;;;4919216;29;20385;-80
2021/06/26 05:30:13;;;;;;;5.20;2.70;;;;;;;;;;4936181;29;20075;-80
2021/06/26 05:32:40;;;;;;;5.10;2.85;;;;;;;;;;4936189;29;20492;-79
2021/06/26 05:35:07;;;;;;;4.45;2.63;;;;;;;;;;4919176;29;20059;-80
2021/06/26 05:37:33;;;;;;;3.75;2.42;;;;;;;;;;4918946;29;20425;-79
2021/06/26 05:40:00;;;;;;;4.78;2.50;;;;;;;;;;4918825;29;20095;-84
2021/06/26 05:42:26;;;;;;;5.38;3.83;;;;;;;;;;4936573;29;20095;-82
2021/06/26 05:44:52;;;;;;;6.72;3.63;;;;;;;;;;4936001;29;20038;-80
2021/06/26 05:47:18;;;;;;;6.68;4.10;;;;;;;;;;4935980;29;20059;-80
2021/06/26 05:49:45;;;;;;;6.05;3.53;;;;;;;;;;4935940;29;20395;-80
2021/06/26 05:52:11;;;;;;;5.28;3.45;;;;;;;;;;4918877;29;20028;-80
2021/06/26 05:54:37;;;;;;;7.22;4.35;;;;;;;;;;4935920;29;20035;-80
2021/06/26 05:57:04;;;;;;;7.28;4.20;;;;;;;;;;4918728;29;20035;-80
2021/06/26 05:59:30;;;;;;;9.82;5.00;;;;;;;;;;4935851;29;20107;-80
2021/06/26 06:01:56;;;;;;;7.72;5.13;;;;;;;;;;4936381;29;20032;-80
2021/06/26 06:04:23;;;;;;;6.65;4.30;;;;;;;;;;4918732;29;20389;-80
2021/06/26 06:06:49;;;;;;;7.63;4.65;;;;;;;;;;4935820;29;20051;-79
2021/06/26 06:09:15;;;;;;;9.07;4.40;;;;;;;;;;4935766;29;20060;-80
2021/06/26 06:11:41;;;;;;;6.45;4.18;;;;;;;;;;4935713;29;20036;-79
2021/06/26 06:14:07;;;;;;;5.70;4.00;;;;;;;;;;4918691;29;20034;-79
2021/06/26 06:16:36;;;;;;;5.50;3.88;;;;;;;;;;4918543;29;20445;-81
2021/06/26 06:19:02;;;;;;;6.03;3.25;;;;;;;;;;4921516;29;20500;-81
2021/06/26 06:21:28;;;;;;;6.88;3.33;;;;;;;;;;4939183;29;20098;-81
2021/06/26 06:23:54;;;;;;;6.03;3.92;;;;;;;;;;4922101;29;20036;-81
2021/06/26 06:26:21;;;;;;;5.25;3.50;;;;;;;;;;4921976;29;20054;-88
2021/06/26 06:28:48;;;;;;;7.72;3.80;;;;;;;;;;4938996;29;20032;-81
2021/06/26 06:31:15;;;;;;;4.43;3.17;;;;;;;;;;4921968;29;20024;-82
2021/06/26 06:33:41;;;;;;;5.57;3.85;;;;;;;;;;4938983;29;20036;-80
2021/06/26 06:36:07;;;;;;;5.80;3.65;;;;;;;;;;4921950;29;20094;-82
2021/06/26 06:38:34;;;;;;;7.60;3.70;;;;;;;;;;4939133;29;20064;-82
2021/06/26 06:41:01;;;;;;;7.05;4.05;;;;;;;;;;4939466;29;20019;-81
2021/06/26 06:43:27;;;;;;;9.95;4.72;;;;;;;;;;4938907;29;20024;-80
2021/06/26 06:45:54;;;;;;;9.98;5.57;;;;;;;;;;4921747;29;20051;-81
2021/06/26 06:48:21;;;;;;;10.32;5.60;;;;;;;;;;4921631;29;20110;-81
2021/06/26 06:50:47;;;;;;;8.55;5.38;;;;;;;;;;4939224;29;20422;-81
2021/06/26 06:53:13;;;;;;;6.43;5.20;;;;;;;;;;4938659;29;20028;-81
2021/06/26 06:55:39;;;;;;;7.20;5.20;;;;;;;;;;4938678;29;20508;-80
2021/06/26 06:58:06;;;;;;;7.28;4.35;;;;;;;;;;4939049;29;20043;-81
2021/06/26 07:00:32;;;;;;;6.78;4.63;;;;;;;;;;4939094;29;20414;-79
2021/06/26 07:02:58;;;;;;;7.55;4.45;;;;;;;;;;4939038;29;20046;-81
2021/06/26 07:05:24;;;;;;;5.72;4.20;;;;;;;;;;4938362;29;20063;-80
2021/06/26 07:07:52;;;;;;;8.35;4.47;;;;;;;;;;4938703;29;20126;-83
2021/06/26 07:10:18;;;;;;;5.10;3.38;;;;;;;;;;4921276;29;20027;-80
2021/06/26 07:12:44;;;;;;;8.82;3.80;;;;;;;;;;4938901;29;20037;-80
2021/06/26 07:15:11;;;;;;;7.70;3.88;;;;;;;;;;4921243;29;20090;-81
2021/06/26 07:17:37;;;;;;;7.22;3.70;;;;;;;;;;4938161;29;20039;-81
2021/06/26 07:20:04;;;;;;;7.03;3.20;;;;;;;;;;4921140;29;20390;-81
2021/06/26 07:22:31;;;;;;;5.50;3.00;;;;;;;;;;4921075;29;20031;-80
2021/06/26 07:24:57;;;;;;;14.73;3.22;;;;;;;;;;4938687;29;20107;-82
2021/06/26 07:27:23;;;;;;;6.18;3.30;;;;;;;;;;4938620;29;20039;-82
2021/06/26 07:29:50;;;;;;;5.97;2.95;;;;;;;;;;4919838;29;20401;-84
2021/06/26 07:32:16;;;;;;;4.18;2.67;;;;;;;;;;4920953;29;20123;-85
2021/06/26 07:34:42;;;;;;;4.70;2.92;;;;;;;;;;4938438;29;20032;-81
2021/06/26 07:37:08;;;;;;;5.50;3.22;;;;;;;;;;4920824;29;20549;-79
2021/06/26 07:39:34;;;;;;;5.85;3.20;;;;;;;;;;4920493;29;20055;-80
2021/06/26 07:42:00;;;;;;;4.90;3.17;;;;;;;;;;4920706;29;20040;-80
2021/06/26 07:44:26;;;;;;;6.40;3.20;;;;;;;;;;4937765;29;20030;-80
2021/06/26 07:46:53;;;;;;;9.32;3.15;;;;;;;;;;4937624;29;20030;-81
2021/06/26 07:49:19;;;;;;;4.68;3.22;;;;;;;;;;4937661;29;20062;-79
2021/06/26 07:51:45;;;;;;;3.67;2.50;;;;;;;;;;4937688;29;20051;-79
2021/06/26 07:54:11;;;;;;;4.70;2.70;;;;;;;;;;4920505;29;20031;-79
2021/06/26 07:56:38;;;;;;;4.60;2.67;;;;;;;;;;4920479;29;20024;-80
2021/06/26 07:59:04;;;;;;;5.85;2.97;;;;;;;;;;4920396;29;20042;-80
2021/06/26 08:01:30;;;;;;;3.95;2.97;;;;;;;;;;4920411;29;20031;-81
2021/06/26 08:03:57;;;;;;;5.25;2.97;;;;;;;;;;4937456;29;20031;-82
2021/06/26 08:06:23;;;;;;;4.13;2.88;;;;;;;;;;4937827;29;20028;-80
2021/06/26 08:08:49;;;;;;;3.95;2.65;;;;;;;;;;4937330;29;20031;-80
2021/06/26 08:11:15;;;;;;;3.67;2.50;;;;;;;;;;4920114;29;20028;-81
2021/06/26 08:13:42;;;;;;;6.32;3.00;;;;;;;;;;4920964;29;20028;-81
2021/06/26 08:16:08;;;;;;;3.58;2.58;;;;;;;;;;4937201;29;20028;-81
2021/06/26 08:18:34;;;;;;;10.75;3.17;;;;;;;;;;4937089;29;20039;-81
2021/06/26 08:21:01;;;;;;;4.40;2.50;;;;;;;;;;4937650;29;20034;-81
2021/06/26 08:23:27;;;;;;;5.05;2.50;;;;;;;;;;4937110;29;20055;-81
2021/06/26 08:25:54;;;;;;;3.80;2.20;;;;;;;;;;4937019;29;20389;-81
2021/06/26 08:28:20;;;;;;;4.50;2.70;;;;;;;;;;4937236;29;20020;-80
2021/06/26 08:30:46;;;;;;;4.88;3.08;;;;;;;;;;4919906;29;20438;-80
2021/06/26 08:33:12;;;;;;;5.85;2.25;;;;;;;;;;4919883;29;20370;-81
2021/06/26 08:35:39;;;;;;;4.07;2.30;;;;;;;;;;4919751;29;20042;-80
2021/06/26 08:38:05;;;;;;;4.85;2.13;;;;;;;;;;4936746;29;20477;-86
2021/06/26 08:40:31;;;;;;;3.72;2.10;;;;;;;;;;4936366;29;20567;-79
2021/06/26 08:42:57;;;;;;;3.08;2.15;;;;;;;;;;4919679;29;20062;-79
2021/06/26 08:45:24;;;;;;;3.63;2.42;;;;;;;;;;4937233;29;20055;-79
2021/06/26 08:47:51;;;;;;;4.35;2.50;;;;;;;;;;4919534;29;20031;-79
2021/06/26 08:50:18;;;;;;;3.72;2.35;;;;;;;;;;4919611;29;20114;-79
2021/06/26 08:52:44;;;;;;;5.28;2.65;;;;;;;;;;4936617;29;20027;-81
2021/06/26 08:55:11;;;;;;;2.65;1.95;;;;;;;;;;4919419;29;20453;-81
2021/06/26 08:57:39;;;;;;;3.65;1.77;;;;;;;;;;4919363;29;20500;-81
2021/06/26 09:00:11;;;;;;;2.58;1.58;;;;;;;;;;4936926;29;20536;-81
2021/06/26 09:02:37;;;;;;;6.05;1.88;;;;;;;;;;4919395;29;20028;-81
2021/06/26 09:05:05;;;;;;;3.13;1.90;;;;;;;;;;4936392;29;20466;-81
2021/06/26 09:07:32;;;;;;;3.80;2.53;;;;;;;;;;4936446;29;20035;-80
2021/06/26 09:10:09;;;;;;;2.72;1.58;;;;;;;;;;4919315;29;20430;-80
2021/06/26 09:12:37;;;;;;;2.03;1.52;;;;;;;;;;4919275;29;20024;-81
2021/06/26 09:15:03;;;;;;;4.50;1.90;;;;;;;;;;4936278;29;20091;-81
2021/06/26 09:17:30;;;;;;;3.28;1.90;;;;;;;;;;4936197;29;20106;-80
2021/06/26 09:20:00;;;;;;;2.55;1.90;;;;;;;;;;4919169;29;20442;-81
2021/06/26 09:22:56;;;;;;;6.10;2.10;;;;;;;;;;4919106;29;20028;-81
2021/06/26 09:25:29;;;;;;;2.25;1.73;;;;;;;;;;4911121;29;20079;-81
2021/06/26 09:27:56;;;;;;;3.28;1.83;;;;;;;;;;4919080;29;20027;-82
2021/06/26 09:30:34;;;;;;;2.90;2.00;;;;;;;;;;4936132;29;20066;-81
2021/06/26 09:33:17;;;;;;;3.17;1.88;;;;;;;;;;4919075;29;20378;-81
2021/06/26 09:35:47;;;;;;;14.05;2.67;;;;;;;;;;4919100;29;20024;-82
2021/06/26 09:38:14;;;;;;;3.15;1.90;;;;;;;;;;4936537;29;20040;-81
2021/06/26 09:40:41;;;;;;;3.25;1.85;;;;;;;;;;4936021;29;20044;-85
2021/06/26 09:43:08;;;;;;;2.08;1.35;;;;;;;;;;4936086;29;20106;-81
2021/06/26 09:45:34;;;;;;;5.38;1.50;;;;;;;;;;4918930;29;20036;-81
2021/06/26 09:48:05;;;;;;;2.33;1.40;;;;;;;;;;4918923;29;20508;-81
2021/06/26 09:50:32;;;;;;;3.15;1.60;;;;;;;;;;4919080;29;20523;-81
2021/06/26 09:53:00;;;;;;;2.72;1.55;;;;;;;;;;4937420;29;20032;-81
2021/06/26 09:55:27;;;;;;;3.80;1.55;;;;;;;;;;4922710;29;20042;-81
2021/06/26 09:57:55;;;;;;;2.08;1.40;;;;;;;;;;4940207;29;20050;-81
2021/06/26 10:00:23;;;;;;;2.28;1.40;;;;;;;;;;4940176;29;20470;-81
2021/06/26 10:02:49;;;;;;;3.85;1.75;;;;;;;;;;4939385;29;20504;-81
2021/06/26 10:05:16;;;;;;;2.35;1.70;;;;;;;;;;4939601;29;20088;-81
2021/06/26 10:07:44;;;;;;;2.65;1.70;;;;;;;;;;4939566;29;20082;-81
2021/06/26 10:10:14;;;;;;;6.28;2.13;;;;;;;;;;4922063;29;20119;-80
2021/06/26 10:12:41;;;;;;;2.10;1.37;;;;;;;;;;4922072;29;20039;-81
2021/06/26 10:15:08;;;;;;;3.80;1.63;;;;;;;;;;4939423;29;20063;-81
2021/06/26 10:17:35;;;;;;;2.67;1.48;;;;;;;;;;4939814;29;20027;-80
2021/06/26 10:20:02;;;;;;;2.10;1.27;;;;;;;;;;4939443;29;20079;-80
2021/06/26 10:22:29;;;;;;;3.47;1.40;;;;;;;;;;4939933;29;20083;-81
2021/06/26 10:24:55;;;;;;;2.65;1.55;;;;;;;;;;4922190;29;20070;-79
2021/06/26 10:27:23;;;;;;;2.10;1.40;;;;;;;;;;4939079;29;20091;-79
2021/06/26 10:29:49;;;;;;;2.92;1.42;;;;;;;;;;4921958;29;20027;-81
2021/06/26 10:32:16;;;;;;;2.35;1.60;;;;;;;;;;4921991;29;20477;-81
2021/06/26 10:34:49;;;;;;;3.38;2.00;;;;;;;;;;4921909;29;20389;-84
2021/06/26 10:37:17;;;;;;;2.72;1.95;;;;;;;;;;4938944;29;20043;-80
2021/06/26 10:39:43;;;;;;;2.70;1.80;;;;;;;;;;4918493;29;20139;-81
2021/06/26 10:42:11;;;;;;;2.97;1.60;;;;;;;;;;4920450;29;20024;-81
2021/06/26 10:44:41;;;;;;;2.38;1.60;;;;;;;;;;4919937;29;20032;-80
2021/06/26 10:47:08;;;;;;;2.60;1.83;;;;;;;;;;4918567;29;20101;-81
2021/06/26 10:49:34;;;;;;;2.72;1.80;;;;;;;;;;4920309;29;20423;-80
2021/06/26 10:52:10;;;;;;;2.50;1.80;;;;;;;;;;4919724;29;20247;-80
2021/06/26 10:54:37;;;;;;;2.92;1.85;;;;;;;;;;4918390;29;20126;-80
2021/06/26 10:57:05;;;;;;;3.88;2.20;;;;;;;;;;4919540;29;20056;-80
2021/06/26 10:59:32;;;;;;;2.47;1.88;;;;;;;;;;4919640;29;20032;-80
2021/06/26 11:02:00;;;;;;;3.78;1.77;;;;;;;;;;4919642;29;20021;-80
2021/06/26 11:04:27;;;;;;;5.50;1.67;;;;;;;;;;4918112;29;20032;-80
2021/06/26 11:07:07;;;;;;;4.72;2.10;;;;;;;;;;4919543;29;20028;-80
2021/06/26 11:09:36;;;;;;;2.92;1.75;;;;;;;;;;4918239;29;20034;-80
2021/06/26 11:12:20;;;;;;;3.35;1.98;;;;;;;;;;4918157;29;20032;-80
2021/06/26 11:14:53;;;;;;;3.13;1.80;;;;;;;;;;4918163;29;20070;-80
2021/06/26 11:17:24;;;;;;;2.92;2.00;;;;;;;;;;4917959;29;20039;-80
2021/06/26 11:19:51;;;;;;;3.50;2.10;;;;;;;;;;4919862;29;20087;-80
2021/06/26 11:22:17;;;;;;;2.95;1.90;;;;;;;;;;4919276;29;20072;-80
2021/06/26 11:24:46;;;;;;;2.88;1.90;;;;;;;;;;4917883;29;20106;-80
2021/06/26 11:27:18;;;;;;;3.25;1.88;;;;;;;;;;4917899;29;20371;-80
2021/06/26 11:29:46;;;;;;;3.30;1.50;;;;;;;;;;4917886;29;20020;-80
2021/06/26 11:32:21;;;;;;;3.00;1.75;;;;;;;;;;4919122;29;20032;-80
2021/06/26 11:35:01;;;;;;;3.72;1.85;;;;;;;;;;4917695;29;20063;-80
2021/06/26 11:37:38;;;;;;;2.72;1.77;;;;;;;;;;4917643;29;20051;-84
2021/06/26 11:40:16;;;;;;;2.85;2.05;;;;;;;;;;4917464;29;20143;-80
2021/06/26 11:42:49;;;;;;;3.47;1.70;;;;;;;;;;4917617;29;20059;-80
2021/06/26 11:45:17;;;;;;;2.50;1.55;;;;;;;;;;4917592;29;20032;-80
2021/06/26 11:47:43;;;;;;;3.30;1.90;;;;;;;;;;4918638;29;20378;-79
2021/06/26 11:50:13;;;;;;;2.42;1.58;;;;;;;;;;4918494;29;20032;-80
2021/06/26 11:52:39;;;;;;;2.88;1.98;;;;;;;;;;4917216;29;20040;-78
2021/06/26 11:55:06;;;;;;;2.83;1.77;;;;;;;;;;4918675;29;20037;-79
2021/06/26 11:57:32;;;;;;;3.63;1.67;;;;;;;;;;4918202;29;20490;-79
2021/06/26 11:59:58;;;;;;;7.97;2.08;;;;;;;;;;4916731;29;20462;-80
2021/06/26 12:02:32;;;;;;;2.75;1.90;;;;;;;;;;4916681;29;20043;-81
2021/06/26 12:04:59;;;;;;;6.30;2.22;;;;;;;;;;4918445;29;20102;-85
2021/06/26 12:07:34;;;;;;;4.30;2.13;;;;;;;;;;4918159;29;20095;-80
2021/06/26 12:10:02;;;;;;;2.10;1.42;;;;;;;;;;4917290;29;20504;-81
2021/06/26 12:12:33;;;;;;;2.63;1.38;;;;;;;;;;4917230;29;20454;-80
2021/06/26 12:15:00;;;;;;;4.57;1.67;;;;;;;;;;4917322;29;20456;-81
2021/06/26 12:17:26;;;;;;;5.10;1.63;;;;;;;;;;4919104;29;20039;-82
2021/06/26 12:19:59;;;;;;;2.25;1.50;;;;;;;;;;4918504;29;20055;-82
2021/06/26 12:22:27;;;;;;;5.38;1.95;;;;;;;;;;4917420;29;20485;-79
2021/06/26 12:25:04;;;;;;;6.03;1.70;;;;;;;;;;4917049;29;20389;-80
2021/06/26 12:27:30;;;;;;;8.75;1.88;;;;;;;;;;4916851;29;20032;-79
2021/06/26 12:30:07;;;;;;;5.43;1.98;;;;;;;;;;4916742;29;20060;-80
2021/06/26 12:32:34;;;;;;;2.53;1.42;;;;;;;;;;4916605;29;20111;-83
2021/06/26 12:35:01;;;;;;;3.05;1.50;;;;;;;;;;4916800;29;20051;-83
2021/06/26 12:37:27;;;;;;;7.25;1.50;;;;;;;;;;4917898;29;20044;-85
2021/06/26 12:40:09;;;;;;;3.83;1.52;;;;;;;;;;4931122;29;20047;-81
2021/06/26 12:42:39;;;;;;;4.20;1.60;;;;;;;;;;4919611;29;20115;-79
2021/06/26 12:45:06;;;;;;;4.00;1.80;;;;;;;;;;4920067;29;20030;-86
2021/06/26 12:47:32;;;;;;;3.05;1.73;;;;;;;;;;4937756;29;20031;-84
2021/06/26 12:50:06;;;;;;;3.75;1.73;;;;;;;;;;4937097;29;20047;-86
2021/06/26 12:52:33;;;;;;;2.53;1.70;;;;;;;;;;4920406;29;20023;-85
2021/06/26 12:54:59;;;;;;;6.53;1.88;;;;;;;;;;4919527;29;20126;-84
2021/06/26 12:57:36;;;;;;;2.47;1.60;;;;;;;;;;4937164;29;20062;-83
2021/06/26 13:00:13;;;;;;;2.10;1.42;;;;;;;;;;4919783;29;20473;-83
2021/06/26 13:02:39;;;;;;;4.05;1.77;;;;;;;;;;4920094;29;20107;-86
2021/06/26 13:05:06;;;;;;;3.10;1.50;;;;;;;;;;4939809;29;20094;-84
2021/06/26 13:07:32;;;;;;;3.63;1.63;;;;;;;;;;4938269;29;20039;-82
2021/06/26 13:10:04;;;;;;;2.38;1.58;;;;;;;;;;4919186;29;20036;-81
2021/06/26 13:12:30;;;;;;;3.03;1.80;;;;;;;;;;4919357;29;20032;-86
2021/06/26 13:15:01;;;;;;;2.15;1.50;;;;;;;;;;4936870;29;20015;-83
2021/06/26 13:17:29;;;;;;;3.85;1.60;;;;;;;;;;4919701;29;20028;-86
2021/06/26 13:19:56;;;;;;;10.15;1.45;;;;;;;;;;4936569;29;20477;-81
2021/06/26 13:22:22;;;;;;;4.85;1.55;;;;;;;;;;4919384;29;20031;-81
2021/06/26 13:24:49;;;;;;;13.68;1.85;;;;;;;;;;4936272;29;20024;-87
2021/06/26 13:27:16;;;;;;;5.00;1.60;;;;;;;;;;4918308;29;20122;-89
2021/06/26 13:29:42;;;;;;;6.03;1.58;;;;;;;;;;4936726;29;20071;-81
2021/06/26 13:32:14;;;;;;;10.23;2.35;;;;;;;;;;4919314;29;20031;-80
2021/06/26 13:34:42;;;;;;;2.08;1.27;;;;;;;;;;4919037;29;20024;-81
2021/06/26 13:37:08;;;;;;;2.40;1.30;;;;;;;;;;4918930;29;20038;-82
2021/06/26 13:39:34;;;;;;;12.57;1.77;;;;;;;;;;4919259;29;20055;-82
2021/06/26 13:42:01;;;;;;;2.00;1.30;;;;;;;;;;4919099;29;20082;-81
2021/06/26 13:44:28;;;;;;;5.22;1.33;;;;;;;;;;4918806;29;20099;-81
2021/06/26 13:46:54;;;;;;;2.20;1.30;;;;;;;;;;4935238;29;20036;-82
2021/06/26 13:49:20;;;;;;;2.22;1.20;;;;;;;;;;4935760;29;20032;-82
2021/06/26 13:51:47;;;;;;;5.07;1.35;;;;;;;;;;4919094;29;20078;-80
2021/06/26 13:54:13;;;;;;;2.08;1.23;;;;;;;;;;4918597;29;20027;-80
2021/06/26 13:56:39;;;;;;;2.20;1.20;;;;;;;;;;4918854;29;20126;-84
2021/06/26 13:59:06;;;;;;;1.55;1.00;;;;;;;;;;4918921;29;20190;-81
2021/06/26 14:01:32;;;;;;;2.25;1.33;;;;;;;;;;4935935;29;20465;-82
2021/06/26 14:03:59;;;;;;;2.08;1.25;;;;;;;;;;4935924;29;20087;-81
2021/06/26 14:06:25;;;;;;;2.13;1.17;;;;;;;;;;4935900;29;20023;-80
2021/06/26 14:08:51;;;;;;;3.25;1.33;;;;;;;;;;4935871;29;20106;-80
2021/06/26 14:11:17;;;;;;;1.92;1.20;;;;;;;;;;4918828;29;20031;-81
2021/06/26 14:13:44;;;;;;;1.92;1.20;;;;;;;;;;4935801;29;20568;-81
2021/06/26 14:16:10;;;;;;;2.20;1.10;;;;;;;;;;4936362;29;20035;-81
2021/06/26 14:18:37;;;;;;;3.03;1.60;;;;;;;;;;4935696;29;20429;-81
2021/06/26 14:21:05;;;;;;;2.20;1.30;;;;;;;;;;4918634;29;20377;-81
2021/06/26 14:23:32;;;;;;;2.08;1.27;;;;;;;;;;4935674;29;20086;-81
2021/06/26 14:25:58;;;;;;;6.07;1.20;;;;;;;;;;4918699;29;20027;-79
2021/06/26 14:28:25;;;;;;;2.75;1.25;;;;;;;;;;4918658;29;20040;-80
2021/06/26 14:30:51;;;;;;;3.65;1.40;;;;;;;;;;4918582;29;20036;-82
2021/06/26 14:33:17;;;;;;;2.42;1.40;;;;;;;;;;4936211;29;20492;-81
2021/06/26 14:35:44;;;;;;;1.98;1.20;;;;;;;;;;4935624;29;20024;-81
2021/06/26 14:38:12;;;;;;;2.85;1.30;;;;;;;;;;4935714;29;20044;-82
2021/06/26 14:40:40;;;;;;;5.25;1.10;;;;;;;;;;4921785;29;20044;-88
2021/06/26 14:43:06;;;;;;;1.70;1.10;;;;;;;;;;4922022;29;20179;-85